Time;durP1;ratioP1;P1;durP2;ratioP2;P2;SDS_P1;SDS_P2;PMS_P1;PMS_P2;Temp;Humidity;BMP_temperature;BMP_pressure;BME280_temperature;BME280_humidity;BME280_pressure;Samples;Min_cycle;Max_cycle;Signal;HPM_P1;HPM_P2
2022/05/30 00:00:57;;;;;;;2.67;1.10;;;19.70;79.30;;;;;;5094816;28;20040;-64
2022/05/30 00:03:22;;;;;;;2.83;1.10;;;19.50;82.00;;;;;;5093712;28;20119;-65
2022/05/30 00:05:49;;;;;;;2.55;0.95;;;19.30;79.20;;;;;;5075141;28;20471;-64
2022/05/30 00:08:16;;;;;;;3.65;1.13;;;19.40;81.90;;;;;;5068419;28;20047;-64
2022/05/30 00:10:42;;;;;;;3.05;1.17;;;19.10;81.90;;;;;;5061805;28;20039;-64
2022/05/30 00:13:08;;;;;;;2.38;1.00;;;19.40;78.80;;;;;;5055446;28;20511;-64
2022/05/30 00:15:34;;;;;;;2.15;1.10;;;19.40;81.80;;;;;;5078798;28;20102;-64
2022/05/30 00:18:00;;;;;;;4.88;1.15;;;;;;;;;;5082995;28;20047;-67
2022/05/30 00:20:26;;;;;;;2.72;0.90;;;19.50;81.80;;;;;;5095831;28;20525;-66
2022/05/30 00:22:52;;;;;;;2.83;0.95;;;19.50;82.00;;;;;;5084933;28;20087;-64
2022/05/30 00:25:17;;;;;;;4.30;0.88;;;19.20;81.70;;;;;;5101937;28;20044;-65
2022/05/30 00:27:43;;;;;;;3.75;1.05;;;19.00;81.50;;;;;;5058697;28;20201;-64
2022/05/30 00:30:09;;;;;;;2.38;0.82;;;19.50;82.10;;;;;;5100248;28;20044;-64
2022/05/30 00:32:35;;;;;;;4.13;1.20;;;19.20;78.90;;;;;;5060254;28;20054;-64
2022/05/30 00:35:01;;;;;;;4.07;1.10;;;19.50;81.90;;;;;;5075594;28;20404;-64
2022/05/30 00:37:27;;;;;;;4.15;0.82;;;19.50;82.00;;;;;;5074986;28;20579;-64
2022/05/30 00:39:53;;;;;;;4.03;1.13;;;19.30;81.70;;;;;;5058489;28;20084;-65
2022/05/30 00:42:21;;;;;;;3.13;0.93;;;18.90;81.40;;;;;;5060465;28;20053;-65
2022/05/30 00:44:48;;;;;;;5.15;1.27;;;19.40;79.10;;;;;;5079756;28;20086;-65
2022/05/30 00:47:14;;;;;;;4.28;0.90;;;19.20;81.60;;;;;;5109547;28;20040;-66
2022/05/30 00:49:40;;;;;;;5.10;0.98;;;19.60;79.10;;;;;;5061895;28;20050;-65
2022/05/30 00:52:07;;;;;;;3.50;0.90;;;19.20;77.80;;;;;;5061858;28;20040;-66
2022/05/30 00:54:36;;;;;;;3.60;1.38;;;19.30;78.90;;;;;;5046425;28;20054;-65
2022/05/30 00:57:19;;;;;;;3.78;1.23;;;19.40;79.10;;;;;;5062286;28;20109;-65
2022/05/30 01:00:02;;;;;;;2.92;0.80;;;19.30;79.00;;;;;;5064378;28;20047;-64
2022/05/30 01:02:31;;;;;;;2.30;0.93;;;19.30;81.70;;;;;;5063084;28;20056;-64
2022/05/30 01:07:41;;;;;;;2.60;1.02;;;19.00;78.70;;;;;;5050937;28;20059;-65
2022/05/30 01:10:09;;;;;;;1.67;0.73;;;19.20;81.70;;;;;;5078716;28;20044;-65
2022/05/30 01:12:43;;;;;;;3.47;0.93;;;19.00;78.20;;;;;;5060960;28;20059;-65
2022/05/30 01:15:11;;;;;;;3.60;1.10;;;19.40;77.60;;;;;;5074806;28;20048;-64
2022/05/30 01:17:45;;;;;;;3.22;0.93;;;19.30;81.60;;;;;;5079579;28;20044;-66
2022/05/30 01:20:44;;;;;;;2.08;0.80;;;19.20;81.60;;;;;;5079439;28;20428;-65
2022/05/30 01:23:11;;;;;;;4.15;1.00;;;;;;;;;;5095803;28;20047;-66
2022/05/30 01:26:04;;;;;;;3.42;1.10;;;19.40;81.50;;;;;;5085589;28;20533;-66
2022/05/30 01:28:48;;;;;;;3.35;1.38;;;19.30;78.80;;;;;;5077460;28;20051;-65
2022/05/30 01:31:14;;;;;;;3.42;1.20;;;19.20;81.60;;;;;;5062232;28;20124;-66
2022/05/30 01:33:40;;;;;;;4.65;1.40;;;19.10;81.40;;;;;;5080782;28;20051;-66
2022/05/30 01:36:06;;;;;;;2.67;0.75;;;19.40;81.90;;;;;;5076975;28;20485;-64
2022/05/30 01:38:32;;;;;;;2.05;0.95;;;19.10;78.70;;;;;;5056230;28;20047;-65
2022/05/30 01:40:59;;;;;;;3.00;1.27;;;19.20;81.50;;;;;;5068044;28;20109;-65
2022/05/30 01:43:25;;;;;;;3.03;1.05;;;19.30;81.60;;;;;;5062235;28;20059;-65
2022/05/30 01:45:51;;;;;;;4.20;1.63;;;19.40;81.80;;;;;;5077690;28;20539;-65
2022/05/30 01:48:17;;;;;;;3.22;0.98;;;19.20;81.50;;;;;;5114938;28;20054;-65
2022/05/30 01:50:45;;;;;;;3.88;1.15;;;19.10;81.60;;;;;;5098217;28;20051;-65
2022/05/30 01:53:11;;;;;;;5.07;1.38;;;19.10;81.50;;;;;;5095531;28;20495;-65
2022/05/30 01:55:37;;;;;;;4.00;1.17;;;19.20;78.90;;;;;;5077682;28;20074;-65
2022/05/30 01:58:03;;;;;;;2.47;1.00;;;19.20;78.70;;;;;;5061911;28;20104;-65
2022/05/30 02:00:29;;;;;;;1.75;0.90;;;19.20;81.80;;;;;;5096138;28;20473;-66
2022/05/30 02:02:55;;;;;;;4.10;1.70;;;19.10;78.70;;;;;;5060973;28;20115;-65
2022/05/30 02:05:21;;;;;;;3.38;0.90;;;19.20;81.50;;;;;;5096888;28;20466;-66
2022/05/30 02:07:46;;;;;;;4.97;1.20;;;19.00;78.70;;;;;;5108217;28;20079;-66
2022/05/30 02:10:12;;;;;;;4.30;1.33;;;19.30;81.60;;;;;;5095651;28;20048;-66
2022/05/30 02:12:38;;;;;;;3.58;1.05;;;19.20;81.70;;;;;;5110177;28;20044;-66
2022/05/30 02:15:04;;;;;;;4.03;1.30;;;18.80;81.40;;;;;;5113754;28;20122;-65
2022/05/30 02:17:34;;;;;;;3.30;1.17;;;18.90;81.30;;;;;;5097234;28;20123;-66
2022/05/30 02:20:00;;;;;;;3.33;1.13;;;19.20;81.80;;;;;;5093321;28;20055;-65
2022/05/30 02:22:29;;;;;;;3.88;1.25;;;19.20;81.90;;;;;;5114023;28;20036;-64
2022/05/30 02:24:59;;;;;;;2.10;0.95;;;19.10;78.70;;;;;;5095391;28;20078;-65
2022/05/30 02:27:25;;;;;;;2.70;1.15;;;18.90;81.60;;;;;;5094755;28;20040;-65
2022/05/30 02:29:52;;;;;;;2.88;1.20;;;18.90;81.50;;;;;;5060418;28;20399;-65
2022/05/30 02:32:18;;;;;;;3.95;1.05;;;19.00;81.60;;;;;;5095021;28;20040;-65
2022/05/30 02:37:29;;;;;;;3.05;1.00;;;18.90;81.40;;;;;;5104143;28;20043;-65
2022/05/30 02:39:54;;;;;;;2.45;1.10;;;19.10;81.50;;;;;;5095016;28;20128;-65
2022/05/30 02:42:20;;;;;;;4.30;1.33;;;19.00;81.40;;;;;;5106674;28;20042;-66
2022/05/30 02:44:46;;;;;;;3.75;1.00;;;18.80;81.30;;;;;;5113824;28;20031;-66
2022/05/30 02:47:12;;;;;;;3.72;1.00;;;;;;;;;;5115099;28;20409;-70
2022/05/30 02:49:38;;;;;;;3.17;1.08;;;19.10;78.80;;;;;;5111856;28;20043;-65
2022/05/30 02:52:04;;;;;;;2.78;1.02;;;18.80;81.30;;;;;;5110464;28;20473;-65
2022/05/30 02:54:30;;;;;;;2.45;0.82;;;19.00;78.60;;;;;;5107366;28;20044;-65
2022/05/30 02:56:57;;;;;;;6.85;1.50;;;18.80;78.60;;;;;;5095522;28;20088;-65
2022/05/30 02:59:23;;;;;;;5.50;1.35;;;18.90;81.60;;;;;;5086978;28;20075;-65
2022/05/30 03:01:49;;;;;;;2.13;1.10;;;19.10;80.10;;;;;;5065667;28;20385;-65
2022/05/30 03:04:15;;;;;;;4.28;1.10;;;19.20;81.60;;;;;;5076631;28;20078;-65
2022/05/30 03:06:42;;;;;;;3.17;1.20;;;19.00;78.40;;;;;;5075172;28;20115;-65
2022/05/30 03:09:08;;;;;;;2.15;1.05;;;18.70;81.20;;;;;;5071726;28;20040;-66
2022/05/30 03:11:34;;;;;;;5.55;1.35;;;18.90;81.30;;;;;;5072920;28;20041;-66
2022/05/30 03:14:00;;;;;;;3.25;0.98;;;;;;;;;;5064370;28;20124;-67
2022/05/30 03:16:26;;;;;;;2.63;0.90;;;19.10;81.50;;;;;;5091345;28;20089;-66
2022/05/30 03:18:53;;;;;;;3.50;1.00;;;18.90;81.40;;;;;;5093338;28;20047;-67
2022/05/30 03:21:18;;;;;;;5.70;1.30;;;19.00;81.60;;;;;;5075421;28;20478;-66
2022/05/30 03:23:44;;;;;;;2.50;1.35;;;18.80;81.50;;;;;;5072733;28;20041;-66
2022/05/30 03:26:10;;;;;;;7.90;1.58;;;18.80;81.20;;;;;;5073684;28;20108;-65
2022/05/30 03:28:38;;;;;;;2.80;1.27;;;18.90;81.30;;;;;;5064260;28;20106;-65
2022/05/30 03:31:04;;;;;;;3.28;0.93;;;19.00;81.50;;;;;;5066278;28;20059;-65
2022/05/30 03:33:30;;;;;;;4.22;1.38;;;18.70;78.60;;;;;;5069096;28;20047;-65
2022/05/30 03:35:56;;;;;;;3.78;1.42;;;18.90;81.40;;;;;;5075737;28;20052;-65
2022/05/30 03:38:21;;;;;;;3.20;1.20;;;18.70;81.60;;;;;;5073764;28;20044;-64
2022/05/30 03:40:48;;;;;;;2.40;0.85;;;19.00;81.40;;;;;;5073117;28;20045;-65
2022/05/30 03:43:13;;;;;;;2.58;1.20;;;18.90;81.50;;;;;;5090857;28;20040;-65
2022/05/30 03:45:41;;;;;;;2.47;1.05;;;18.80;78.70;;;;;;5092957;28;20444;-65
2022/05/30 03:48:07;;;;;;;4.22;1.27;;;18.90;81.40;;;;;;5085707;28;20048;-66
2022/05/30 03:50:33;;;;;;;4.35;1.25;;;18.90;78.70;;;;;;5073247;28;20048;-65
2022/05/30 03:53:05;;;;;;;4.35;1.42;;;18.80;81.30;;;;;;5076158;28;20063;-66
2022/05/30 03:55:34;;;;;;;3.47;1.20;;;18.70;81.40;;;;;;5084469;28;20486;-65
2022/05/30 03:58:04;;;;;;;3.20;0.90;;;18.70;81.30;;;;;;5062256;28;20422;-65
2022/05/30 04:00:31;;;;;;;3.60;1.08;;;19.00;78.80;;;;;;5072144;28;20469;-65
2022/05/30 04:02:58;;;;;;;4.38;1.13;;;18.90;81.50;;;;;;5078745;28;20051;-65
2022/05/30 04:05:24;;;;;;;3.30;1.38;;;19.00;81.70;;;;;;5095445;28;20513;-65
2022/05/30 04:07:50;;;;;;;2.40;1.00;;;18.90;81.50;;;;;;5098319;28;20118;-65
2022/05/30 04:10:15;;;;;;;2.42;0.80;;;18.90;81.40;;;;;;5109947;28;20432;-65
2022/05/30 04:12:42;;;;;;;3.75;1.38;;;18.80;81.30;;;;;;5064469;28;20052;-65
2022/05/30 04:15:11;;;;;;;2.67;1.20;;;18.90;81.40;;;;;;5077405;28;20072;-66
2022/05/30 04:17:37;;;;;;;3.33;1.10;;;18.80;81.70;;;;;;5058773;28;20409;-67
2022/05/30 04:20:04;;;;;;;4.38;1.10;;;18.90;81.40;;;;;;5105487;28;20052;-66
2022/05/30 04:22:30;;;;;;;3.67;1.10;;;18.90;81.40;;;;;;5045755;28;20044;-66
2022/05/30 04:24:56;;;;;;;3.17;1.10;;;18.70;78.50;;;;;;5045653;28;20508;-66
2022/05/30 04:27:22;;;;;;;4.13;1.60;;;18.90;78.70;;;;;;5076002;28;20568;-66
2022/05/30 04:29:49;;;;;;;3.28;1.10;;;19.00;81.20;;;;;;5063462;28;20047;-67
2022/05/30 04:32:16;;;;;;;2.35;1.02;;;19.20;81.50;;;;;;5073848;28;20501;-66
2022/05/30 04:34:42;;;;;;;3.35;1.33;;;;;;;;;;5042181;28;20044;-66
2022/05/30 04:37:08;;;;;;;3.13;1.10;;;18.90;81.40;;;;;;5095452;28;20046;-67
2022/05/30 04:39:34;;;;;;;3.85;1.00;;;19.10;81.60;;;;;;5075700;28;20040;-66
2022/05/30 04:41:59;;;;;;;3.38;1.00;;;18.90;81.50;;;;;;5078615;28;20047;-66
2022/05/30 04:44:25;;;;;;;2.47;0.80;;;19.00;81.30;;;;;;5056662;28;20135;-66
2022/05/30 04:46:54;;;;;;;3.63;1.10;;;19.00;81.20;;;;;;5045399;28;20040;-65
2022/05/30 04:49:21;;;;;;;3.35;1.30;;;18.80;81.50;;;;;;5074946;28;20055;-67
2022/05/30 04:51:46;;;;;;;3.00;1.20;;;19.40;81.50;;;;;;5071076;28;20040;-66
2022/05/30 04:54:12;;;;;;;2.67;0.93;;;19.10;81.30;;;;;;5065354;28;20387;-64
2022/05/30 04:56:38;;;;;;;3.88;1.13;;;19.10;81.10;;;;;;5076032;28;20086;-64
2022/05/30 04:59:04;;;;;;;2.78;0.90;;;19.10;81.10;;;;;;5103116;28;20059;-65
2022/05/30 05:01:30;;;;;;;2.10;0.90;;;19.10;81.10;;;;;;5081446;28;20126;-64
2022/05/30 05:03:56;;;;;;;3.83;0.85;;;18.90;78.10;;;;;;5105713;28;20458;-65
2022/05/30 05:06:21;;;;;;;3.15;0.95;;;19.30;77.20;;;;;;5058256;28;20067;-67
2022/05/30 05:08:51;;;;;;;2.83;1.17;;;19.20;81.20;;;;;;5059931;28;20408;-65
2022/05/30 05:11:24;;;;;;;2.15;0.90;;;19.30;81.00;;;;;;5042310;28;20109;-64
2022/05/30 05:13:50;;;;;;;3.00;1.17;;;19.30;78.30;;;;;;5103418;28;20046;-64
2022/05/30 05:16:16;;;;;;;1.95;0.90;;;19.40;81.10;;;;;;5052331;28;20055;-66
2022/05/30 05:18:42;;;;;;;2.38;0.90;;;;;;;;;;5061062;28;20047;-67
2022/05/30 05:21:08;;;;;;;2.08;0.90;;;19.50;80.90;;;;;;5057936;28;20040;-65
2022/05/30 05:23:34;;;;;;;2.10;0.55;;;19.50;80.80;;;;;;5058278;28;20051;-65
2022/05/30 05:26:03;;;;;;;3.20;0.90;;;;;;;;;;5075951;28;20054;-66
2022/05/30 05:28:29;;;;;;;2.35;0.80;;;19.70;80.50;;;;;;5103841;28;20051;-65
2022/05/30 05:30:55;;;;;;;3.63;1.00;;;19.50;77.50;;;;;;5081532;28;20044;-64
2022/05/30 05:33:20;;;;;;;2.65;0.85;;;20.10;80.30;;;;;;5078165;28;20497;-64
2022/05/30 05:35:46;;;;;;;2.63;0.82;;;20.40;80.20;;;;;;5067116;28;20047;-64
2022/05/30 05:38:12;;;;;;;3.75;0.88;;;20.30;79.80;;;;;;5062158;28;20554;-65
2022/05/30 05:40:39;;;;;;;1.92;0.80;;;20.40;79.70;;;;;;5106061;28;20039;-65
2022/05/30 05:43:05;;;;;;;2.03;0.80;;;20.50;77.20;;;;;;5077629;28;20048;-65
2022/05/30 05:45:34;;;;;;;2.53;0.70;;;20.40;76.90;;;;;;5079586;28;20047;-64
2022/05/30 05:48:00;;;;;;;1.33;0.75;;;20.70;79.10;;;;;;5096311;28;20405;-65
2022/05/30 05:50:25;;;;;;;2.95;1.05;;;20.70;76.30;;;;;;5063857;28;20048;-65
2022/05/30 05:52:53;;;;;;;1.83;0.70;;;21.20;78.80;;;;;;5078067;28;20040;-66
2022/05/30 05:55:19;;;;;;;1.95;0.90;;;20.90;76.00;;;;;;5098451;28;20523;-65
2022/05/30 05:57:45;;;;;;;2.50;0.80;;;21.30;78.40;;;;;;5072584;28;20080;-64
2022/05/30 06:00:12;;;;;;;1.83;0.63;;;21.20;78.10;;;;;;5096671;28;20063;-64
2022/05/30 06:02:41;;;;;;;1.33;0.98;;;21.50;78.30;;;;;;5113458;28;20088;-64
2022/05/30 06:05:08;;;;;;;3.97;0.80;;;21.10;78.20;;;;;;5095504;28;20056;-64
2022/05/30 06:07:39;;;;;;;2.05;0.70;;;21.50;78.40;;;;;;5078382;28;20055;-64
2022/05/30 06:10:05;;;;;;;3.90;0.80;;;;;;;;;;5061285;28;20059;-64
2022/05/30 06:12:34;;;;;;;1.90;0.93;;;21.20;73.80;;;;;;5083207;28;20044;-64
2022/05/30 06:15:00;;;;;;;3.08;1.08;;;21.20;78.40;;;;;;5077367;28;20481;-63
2022/05/30 06:17:25;;;;;;;2.35;0.90;;;21.20;78.30;;;;;;5084627;28;20051;-63
2022/05/30 06:19:51;;;;;;;4.05;0.95;;;21.20;78.40;;;;;;5084153;28;20056;-64
2022/05/30 06:22:17;;;;;;;3.42;0.80;;;21.30;78.40;;;;;;5049050;28;20064;-63
2022/05/30 06:24:42;;;;;;;2.30;0.85;;;21.20;75.60;;;;;;5095690;28;20510;-63
2022/05/30 06:27:10;;;;;;;3.05;1.10;;;21.20;78.30;;;;;;5095178;28;20036;-63
2022/05/30 06:29:36;;;;;;;3.10;0.80;;;;;;;;;;5077200;28;20143;-64
2022/05/30 06:32:04;;;;;;;2.40;0.88;;;21.30;78.40;;;;;;5069637;28;20044;-65
2022/05/30 06:34:31;;;;;;;1.90;0.85;;;;;;;;;;5064327;28;20062;-66
2022/05/30 06:36:57;;;;;;;2.08;0.80;;;;;;;;;;5077396;28;22079;-66
2022/05/30 06:39:22;;;;;;;4.88;1.23;;;21.40;78.50;;;;;;5077396;28;20052;-64
2022/05/30 06:41:48;;;;;;;3.20;0.85;;;21.30;78.40;;;;;;5096185;28;20139;-64
2022/05/30 06:44:14;;;;;;;1.77;0.90;;;21.40;78.40;;;;;;5096283;28;20044;-65
2022/05/30 06:46:40;;;;;;;1.83;0.95;;;21.30;78.40;;;;;;5077186;28;20038;-64
2022/05/30 06:49:06;;;;;;;2.28;0.70;;;21.30;78.40;;;;;;5094971;28;20047;-64
2022/05/30 06:51:34;;;;;;;3.13;0.90;;;21.30;78.40;;;;;;5095595;28;20419;-64
2022/05/30 06:54:00;;;;;;;4.15;0.80;;;21.20;78.40;;;;;;5055848;28;20515;-64
2022/05/30 06:56:28;;;;;;;2.25;0.90;;;21.30;78.40;;;;;;5060253;28;20055;-64
2022/05/30 06:58:53;;;;;;;1.15;0.50;;;21.40;78.40;;;;;;5095001;28;20043;-65
2022/05/30 07:01:26;;;;;;;2.05;0.80;;;21.30;78.40;;;;;;5073650;28;20492;-64
2022/05/30 07:03:51;;;;;;;2.60;1.08;;;21.50;76.00;;;;;;5076401;28;20362;-64
2022/05/30 07:06:23;;;;;;;1.73;0.68;;;21.70;78.50;;;;;;5059807;28;20063;-64
2022/05/30 07:08:49;;;;;;;2.13;0.63;;;21.40;74.30;;;;;;5076673;28;20511;-64
2022/05/30 07:11:15;;;;;;;3.50;0.95;;;21.40;78.30;;;;;;5059952;28;20087;-64
2022/05/30 07:13:42;;;;;;;1.63;0.77;;;21.30;78.30;;;;;;5064468;28;20075;-64
2022/05/30 07:16:09;;;;;;;1.88;0.60;;;21.50;78.40;;;;;;5082814;28;20040;-65
2022/05/30 07:18:35;;;;;;;1.98;0.63;;;;;;;;;;5090921;28;20108;-69
2022/05/30 07:21:03;;;;;;;2.58;1.27;;;21.50;78.50;;;;;;5075576;28;20553;-65
2022/05/30 07:23:30;;;;;;;1.58;0.70;;;21.50;78.60;;;;;;5076185;28;20044;-64
2022/05/30 07:25:59;;;;;;;3.10;0.73;;;21.50;78.60;;;;;;5079565;28;20127;-64
2022/05/30 07:28:29;;;;;;;1.67;0.75;;;21.70;78.60;;;;;;5059275;28;20050;-64
2022/05/30 07:30:56;;;;;;;1.27;0.73;;;21.60;78.10;;;;;;5059769;28;20158;-65
2022/05/30 07:33:21;;;;;;;1.95;0.70;;;21.50;78.40;;;;;;5075933;28;20055;-64
2022/05/30 07:35:47;;;;;;;2.28;0.82;;;21.60;75.60;;;;;;5082859;28;20052;-63
2022/05/30 07:38:13;;;;;;;2.00;0.73;;;21.80;78.50;;;;;;5094332;28;20075;-63
2022/05/30 07:40:38;;;;;;;2.22;0.90;;;21.90;78.70;;;;;;5094265;28;20489;-63
2022/05/30 07:43:04;;;;;;;1.67;0.63;;;22.20;78.50;;;;;;5094213;28;20115;-64
2022/05/30 07:45:30;;;;;;;1.27;0.73;;;22.00;78.30;;;;;;5106064;28;20473;-63
2022/05/30 07:47:56;;;;;;;1.63;0.80;;;22.00;78.20;;;;;;5094124;28;20051;-63
2022/05/30 07:50:22;;;;;;;2.40;0.80;;;22.10;75.40;;;;;;5093768;28;20040;-64
2022/05/30 07:52:48;;;;;;;1.60;0.77;;;22.10;78.00;;;;;;5059037;28;20044;-65
2022/05/30 07:55:13;;;;;;;2.22;0.70;;;22.20;78.00;;;;;;5093665;28;20427;-65
2022/05/30 07:57:51;;;;;;;2.40;0.80;;;22.20;78.00;;;;;;5105794;28;20548;-64
2022/05/30 08:00:18;;;;;;;3.22;1.00;;;22.10;74.20;;;;;;5114363;28;20065;-63
2022/05/30 08:02:44;;;;;;;4.55;1.00;;;22.00;78.00;;;;;;5114312;28;20122;-66
2022/05/30 08:05:11;;;;;;;4.75;1.00;;;22.30;78.10;;;;;;5113822;28;20122;-68
2022/05/30 08:07:36;;;;;;;3.13;1.25;;;22.30;75.40;;;;;;5084060;28;20048;-68
2022/05/30 08:10:03;;;;;;;1.48;0.70;;;22.10;77.80;;;;;;5098857;28;20043;-68
2022/05/30 08:12:29;;;;;;;2.88;1.20;;;22.00;77.60;;;;;;5113862;28;20134;-65
2022/05/30 08:14:55;;;;;;;2.55;0.75;;;22.30;77.60;;;;;;5113722;28;20047;-65
2022/05/30 08:17:21;;;;;;;1.48;0.65;;;22.30;77.30;;;;;;5111476;28;20485;-65
2022/05/30 08:19:47;;;;;;;1.13;0.55;;;22.30;77.30;;;;;;5075522;28;20052;-65
2022/05/30 08:22:13;;;;;;;1.50;0.70;;;22.50;77.30;;;;;;5093629;28;20396;-65
2022/05/30 08:24:44;;;;;;;2.30;0.80;;;22.50;74.60;;;;;;5093751;28;20048;-64
2022/05/30 08:27:10;;;;;;;1.73;0.70;;;;;;;;;;5059528;28;20133;-66
2022/05/30 08:29:36;;;;;;;1.35;0.60;;;22.60;77.00;;;;;;5093879;28;20046;-63
2022/05/30 08:32:03;;;;;;;1.67;0.70;;;22.60;76.90;;;;;;5090975;28;20131;-67
2022/05/30 08:34:29;;;;;;;2.78;0.70;;;22.30;76.70;;;;;;5075773;28;20090;-67
2022/05/30 08:36:55;;;;;;;1.50;0.70;;;22.30;73.60;;;;;;5075305;28;20090;-67
2022/05/30 08:42:08;;;;;;;2.80;0.60;;;22.50;76.70;;;;;;5094052;28;20212;-68
2022/05/30 08:44:34;;;;;;;2.47;0.70;;;22.50;76.70;;;;;;5104795;28;20040;-67
2022/05/30 08:47:21;;;;;;;3.97;1.23;;;22.80;74.10;;;;;;5100888;28;20032;-66
2022/05/30 08:49:50;;;;;;;1.65;0.60;;;22.50;76.60;;;;;;5048637;28;20113;-67
2022/05/30 08:52:53;;;;;;;2.53;0.90;;;22.60;74.20;;;;;;5093155;28;20489;-67
2022/05/30 08:55:43;;;;;;;2.00;0.60;;;22.90;73.00;;;;;;5093923;28;20051;-67
2022/05/30 08:58:36;;;;;;;2.40;0.60;;;22.90;76.60;;;;;;5001153;28;20427;-66
2022/05/30 09:01:14;;;;;;;2.58;0.70;;;22.80;76.50;;;;;;5002921;28;20046;-67
2022/05/30 09:04:09;;;;;;;3.20;1.27;;;23.00;72.70;;;;;;4961509;28;20100;-66
2022/05/30 09:07:01;;;;;;;4.03;0.80;;;23.10;76.50;;;;;;4981930;28;20490;-65
2022/05/30 09:09:56;;;;;;;5.88;1.27;;;23.00;72.60;;;;;;4940570;29;20156;-66
2022/05/30 09:12:34;;;;;;;3.85;0.88;;;23.20;72.70;;;;;;4918023;29;20055;-66
2022/05/30 09:15:27;;;;;;;4.22;0.93;;;23.20;77.10;;;;;;4902911;29;20135;-65
2022/05/30 09:18:09;;;;;;;4.70;1.20;;;22.90;76.90;;;;;;4897012;29;20077;-67
2022/05/30 09:20:35;;;;;;;3.83;1.25;;;23.30;76.90;;;;;;4882746;29;20064;-66
2022/05/30 09:23:04;;;;;;;4.28;1.17;;;23.30;77.10;;;;;;4882455;29;20191;-67
2022/05/30 09:25:55;;;;;;;4.00;1.13;;;23.30;73.10;;;;;;4899201;29;20057;-67
2022/05/30 09:28:21;;;;;;;5.10;1.10;;;23.10;77.20;;;;;;4870069;29;20053;-68
2022/05/30 09:31:11;;;;;;;3.22;0.70;;;23.10;74.30;;;;;;4883906;29;20148;-68
2022/05/30 09:33:38;;;;;;;4.75;1.40;;;23.00;77.10;;;;;;4898292;29;20083;-67
2022/05/30 09:36:10;;;;;;;6.80;1.50;;;22.90;77.10;;;;;;4932604;29;20067;-67
2022/05/30 09:38:57;;;;;;;5.40;0.88;;;22.80;77.50;;;;;;4955775;28;20056;-67
2022/05/30 09:41:49;;;;;;;4.53;0.70;;;22.80;77.20;;;;;;4955856;29;20051;-67
2022/05/30 09:44:17;;;;;;;4.65;1.08;;;22.30;77.20;;;;;;4955177;28;20047;-67
2022/05/30 09:46:53;;;;;;;2.83;0.88;;;22.40;77.50;;;;;;4964325;28;20437;-67
2022/05/30 09:49:24;;;;;;;3.08;1.00;;;22.30;73.20;;;;;;4991752;28;20066;-67
2022/05/30 09:51:51;;;;;;;5.82;0.90;;;22.50;77.80;;;;;;5034399;28;20047;-67
2022/05/30 09:54:23;;;;;;;1.98;0.68;;;22.30;75.00;;;;;;5055090;28;20052;-63
2022/05/30 09:56:49;;;;;;;2.17;0.90;;;22.30;77.80;;;;;;5078847;28;20497;-62
2022/05/30 09:59:34;;;;;;;1.38;0.80;;;22.30;74.90;;;;;;5061274;28;20087;-63
2022/05/30 10:02:01;;;;;;;2.50;1.13;;;22.20;75.80;;;;;;5077939;28;20040;-63
2022/05/30 10:04:31;;;;;;;1.45;0.80;;;22.10;78.10;;;;;;5045183;28;20087;-62
2022/05/30 10:07:17;;;;;;;2.60;0.70;;;22.00;77.80;;;;;;5107434;28;20047;-67
2022/05/30 10:10:04;;;;;;;2.17;0.90;;;22.30;78.10;;;;;;5057228;28;20091;-67
2022/05/30 10:12:34;;;;;;;2.72;0.82;;;22.00;74.10;;;;;;5046078;28;20054;-67
2022/05/30 10:15:00;;;;;;;3.20;0.85;;;22.00;77.80;;;;;;5076592;28;20056;-67
2022/05/30 10:17:31;;;;;;;1.73;0.77;;;22.20;75.10;;;;;;5072654;28;20120;-67
2022/05/30 10:19:57;;;;;;;1.10;0.60;;;22.10;77.90;;;;;;5080633;28;20054;-67
2022/05/30 10:28:52;;;;;;;3.70;1.02;;;22.10;75.60;;;;;;5063150;28;20059;-63
2022/05/30 10:31:38;;;;;;;4.15;0.88;;;22.10;77.80;;;;;;5060899;28;20177;-64
2022/05/30 10:34:25;;;;;;;1.13;0.73;;;21.90;77.90;;;;;;5095214;28;20073;-63
2022/05/30 10:37:10;;;;;;;12.40;1.52;;;21.80;77.60;;;;;;5076955;28;20493;-67
2022/05/30 10:39:57;;;;;;;2.53;0.77;;;22.20;77.80;;;;;;5078812;28;20097;-67
2022/05/30 10:42:31;;;;;;;8.90;1.02;;;22.10;77.50;;;;;;5087533;28;20043;-66
2022/05/30 10:45:21;;;;;;;4.18;1.05;;;22.00;77.70;;;;;;5060485;28;20051;-67
2022/05/30 10:47:48;;;;;;;5.28;1.20;;;22.00;77.60;;;;;;5076846;28;20496;-66
2022/05/30 10:50:46;;;;;;;5.65;1.00;;;22.00;74.90;;;;;;5065208;28;20039;-67
2022/05/30 10:53:49;;;;;;;2.55;0.85;;;21.80;77.60;;;;;;5076975;28;20040;-67
2022/05/30 10:56:17;;;;;;;3.53;0.98;;;21.90;77.80;;;;;;4997440;28;20601;-66
2022/05/30 10:58:47;;;;;;;6.55;1.05;;;21.80;77.70;;;;;;4996779;28;20273;-66
2022/05/30 11:01:24;;;;;;;6.43;1.50;;;21.90;73.70;;;;;;4996756;28;20061;-66
2022/05/30 11:04:05;;;;;;;3.80;1.00;;;21.70;77.70;;;;;;4996950;28;20049;-67
2022/05/30 11:06:32;;;;;;;6.05;0.95;;;22.00;75.50;;;;;;4997267;28;20050;-69
2022/05/30 11:09:03;;;;;;;3.13;0.85;;;21.90;77.80;;;;;;4996548;28;20068;-64
2022/05/30 11:11:48;;;;;;;3.17;1.10;;;21.70;73.40;;;;;;4994476;28;20522;-68
2022/05/30 11:14:23;;;;;;;5.22;0.88;;;21.80;77.60;;;;;;5013633;28;20454;-66
2022/05/30 11:17:28;;;;;;;3.55;0.80;;;21.70;77.60;;;;;;4998607;28;20506;-66
2022/05/30 11:20:11;;;;;;;2.28;0.88;;;21.80;72.80;;;;;;5004722;28;20455;-67
2022/05/30 11:22:46;;;;;;;1.33;0.60;;;21.70;73.80;;;;;;5015629;28;20046;-67
2022/05/30 11:25:14;;;;;;;5.00;1.23;;;21.60;77.60;;;;;;5021795;28;20049;-66
2022/05/30 11:27:50;;;;;;;2.00;0.70;;;21.80;77.70;;;;;;5032059;28;20046;-67
2022/05/30 11:30:35;;;;;;;3.90;1.13;;;21.70;77.70;;;;;;5016350;28;20049;-67
2022/05/30 11:33:36;;;;;;;3.70;1.00;;;22.00;78.10;;;;;;5026628;28;20099;-67
2022/05/30 11:36:15;;;;;;;1.15;0.60;;;21.90;77.80;;;;;;5010815;28;20099;-66
2022/05/30 11:39:17;;;;;;;4.05;0.73;;;21.80;77.60;;;;;;4995877;28;20089;-66
2022/05/30 11:42:31;;;;;;;1.88;0.50;;;21.80;74.00;;;;;;4994847;28;20080;-63
2022/05/30 11:45:21;;;;;;;0.95;0.50;;;21.80;77.70;;;;;;4981916;28;20108;-65
2022/05/30 11:47:55;;;;;;;2.45;0.60;;;21.80;77.50;;;;;;4977432;28;20146;-63
2022/05/30 11:50:26;;;;;;;2.05;0.70;;;21.90;73.00;;;;;;5004617;28;20041;-69
2022/05/30 11:53:06;;;;;;;1.55;0.68;;;21.90;77.50;;;;;;5051611;28;20061;-62
2022/05/30 11:55:41;;;;;;;1.92;0.60;;;21.60;77.30;;;;;;5032238;28;20135;-65
2022/05/30 11:58:16;;;;;;;0.88;0.68;;;21.90;77.50;;;;;;5033309;28;20056;-68
2022/05/30 12:00:47;;;;;;;3.20;0.68;;;21.90;77.60;;;;;;5048869;28;20506;-66
2022/05/30 12:03:22;;;;;;;2.63;0.75;;;22.00;75.10;;;;;;5014561;28;20099;-62
2022/05/30 12:06:17;;;;;;;2.13;0.68;;;21.80;77.60;;;;;;5031961;28;20060;-62
2022/05/30 12:09:18;;;;;;;1.52;0.95;;;22.00;77.80;;;;;;5024213;28;20045;-63
2022/05/30 12:11:58;;;;;;;2.70;0.90;;;22.10;74.10;;;;;;5047837;28;20052;-68
2022/05/30 12:14:47;;;;;;;2.15;0.70;;;22.00;74.10;;;;;;5075059;28;20051;-69
2022/05/30 12:17:16;;;;;;;5.00;0.80;;;21.80;73.90;;;;;;5058612;28;20554;-69
2022/05/30 12:25:46;;;;;;;3.28;0.90;;;22.00;74.00;;;;;;5096279;28;20058;-64
2022/05/30 12:28:27;;;;;;;2.17;0.85;;;22.10;77.90;;;;;;4979038;28;20060;-62
2022/05/30 12:30:55;;;;;;;4.22;0.75;;;21.80;77.70;;;;;;4993138;28;20053;-62
2022/05/30 12:33:30;;;;;;;3.17;0.60;;;21.70;77.80;;;;;;4978258;28;20108;-69
2022/05/30 12:36:11;;;;;;;4.80;0.90;;;22.00;78.10;;;;;;4995076;28;20056;-68
2022/05/30 12:38:52;;;;;;;0.73;0.40;;;22.00;78.10;;;;;;4997736;28;20384;-62
2022/05/30 12:41:30;;;;;;;2.20;0.60;;;21.70;77.80;;;;;;4995162;28;20098;-63
2022/05/30 12:43:56;;;;;;;3.15;0.70;;;22.00;78.40;;;;;;4982281;28;20050;-62
2022/05/30 12:46:28;;;;;;;3.97;0.93;;;22.00;78.20;;;;;;4966996;28;20527;-63
2022/05/30 12:49:20;;;;;;;2.90;0.95;;;22.00;78.30;;;;;;4999050;28;20124;-62
2022/05/30 12:52:14;;;;;;;1.85;0.60;;;21.80;78.40;;;;;;4999618;28;20063;-62
2022/05/30 12:55:12;;;;;;;2.63;0.80;;;21.90;73.80;;;;;;4983764;28;20061;-62
2022/05/30 12:57:42;;;;;;;2.42;0.77;;;21.70;78.60;;;;;;4991884;28;20443;-62
2022/05/30 13:00:36;;;;;;;1.40;0.60;;;21.60;78.50;;;;;;4995445;28;20054;-62
2022/05/30 13:03:25;;;;;;;1.80;0.60;;;21.50;78.90;;;;;;4996751;28;20053;-62
2022/05/30 13:06:19;;;;;;;0.95;0.40;;;21.70;78.70;;;;;;5099772;28;20126;-62
2022/05/30 13:09:03;;;;;;;1.98;0.60;;;21.60;78.60;;;;;;5093300;28;20055;-68
2022/05/30 13:11:32;;;;;;;1.65;0.70;;;21.80;78.80;;;;;;5080061;28;20058;-64
2022/05/30 13:14:09;;;;;;;1.98;0.45;;;21.60;78.50;;;;;;5086308;28;20493;-73
2022/05/30 13:16:39;;;;;;;2.63;0.82;;;21.70;78.50;;;;;;5078812;28;20048;-64
2022/05/30 13:19:06;;;;;;;1.17;0.35;;;21.60;78.70;;;;;;5086925;28;20089;-65
2022/05/30 13:21:32;;;;;;;3.33;0.70;;;21.60;76.00;;;;;;5086750;28;20056;-62
2022/05/30 13:24:00;;;;;;;1.27;0.38;;;21.90;78.90;;;;;;5078763;28;20097;-62
2022/05/30 13:26:28;;;;;;;2.53;0.68;;;21.50;75.20;;;;;;5078738;28;20055;-65
2022/05/30 13:28:54;;;;;;;0.55;0.43;;;21.60;79.00;;;;;;5062355;28;20036;-61
2022/05/30 13:31:21;;;;;;;1.98;0.47;;;21.60;75.90;;;;;;5083225;28;20503;-61